Kezdőlap
METAR-TAF:

METAR-TAF

Repülőterek :

Dusanbei nemzetközi repülőtér

Dusanbe, Tadzsikisztán

földrajzi szélesség: 38-33N, földrajzi hosszúság: 068-47E, magasság: 803 m

Jelenlegi meteorológiai megfigyelések

A jelentés 34 perccel ezelõtt készült, 15:00 UTC
Keleti szél 4 kt
Hőmérséklet 13°C
Páratartalom 62%
Légköri nyomás 1022 hPa
Látótávolság: 5000 m
füst

METAR: UTDD 211500Z 08002MPS 5000 FU NSC 13/06 Q1022 R09/D NOSIG RMK QFE698/0930

Idő: 20:34 (15:34 UTC)

Előrejelzés

A jelentés 3 órával és 34 perccel ezelõtt készült, 12:00 UTC
Az előrejelzés 21-én 13 óra UTC és 22-én 01 óra UTC között érvényes
Különbözõ irányokból fújó szél 4 kt
Látótávolság: 6000 m
Kevés felhő 6600 lábon
Szórványos felhőzet 15000 lábon
21-én 20 óra UTC és 22-én 01 óra UTC között ideiglenes
Látótávolság: 3100 m
Párásság, füst

TAF: UTDD 211200Z 2113/2201 VRB02MPS 6000 FEW066 SCT150 TEMPO 2120/2201 3100 BR FU

Meteorológiai megfigyelések és előrejelzések több, mint 4000 repülőtéren (METAR és TAF jelentéseket).

A térképen piros és sárga pontok jelzik az elérhető meteorológiai állomásokat.

Mozgassa az egeret a pont fölött, hogy megjelenjen az állomás neve.

Azután kattintson az időjárási megfigyelések és előrejelzések megtekintéséhez.

A térkép megváltoztatása: kattintson a fekete keresztel jelölt zöld gombra ráközelítéshez, a vonallal jelölt zöld gombra távolításhoz, vagy a zöld nyilakra a szomszédos térképek eléréséhez.


METAR-TAF: